sensor_id;sensor_type;location;lat;lon;timestamp;pressure;altitude;pressure_sealevel;temperature;humidity
9521;BME280;4798;41.574;23.734;2024-01-06T00:01:49;95462.78;;;4.50;100.00
9521;BME280;4798;41.574;23.734;2024-01-06T00:04:17;95472.34;;;4.56;100.00
9521;BME280;4798;41.574;23.734;2024-01-06T00:06:47;95458.31;;;4.62;100.00
9521;BME280;4798;41.574;23.734;2024-01-06T00:09:16;95461.97;;;4.61;100.00
9521;BME280;4798;41.574;23.734;2024-01-06T00:11:45;95464.00;;;4.71;100.00
9521;BME280;4798;41.574;23.734;2024-01-06T00:14:13;95468.00;;;4.73;100.00
9521;BME280;4798;41.574;23.734;2024-01-06T00:16:42;95483.19;;;4.71;100.00
9521;BME280;4798;41.574;23.734;2024-01-06T00:19:11;95464.81;;;4.71;100.00
9521;BME280;4798;41.574;23.734;2024-01-06T00:21:39;95449.28;;;4.81;100.00
9521;BME280;4798;41.574;23.734;2024-01-06T00:24:10;95473.84;;;4.75;100.00
9521;BME280;4798;41.574;23.734;2024-01-06T00:26:38;95483.75;;;4.62;100.00
9521;BME280;4798;41.574;23.734;2024-01-06T00:29:07;95485.91;;;4.53;100.00
9521;BME280;4798;41.574;23.734;2024-01-06T00:31:35;95487.16;;;4.50;100.00
9521;BME280;4798;41.574;23.734;2024-01-06T00:34:04;95477.59;;;4.44;100.00
9521;BME280;4798;41.574;23.734;2024-01-06T00:36:33;95482.22;;;3.78;100.00
9521;BME280;4798;41.574;23.734;2024-01-06T00:39:01;95467.94;;;3.44;100.00
9521;BME280;4798;41.574;23.734;2024-01-06T00:41:32;95478.69;;;3.54;100.00
9521;BME280;4798;41.574;23.734;2024-01-06T00:44:00;95437.88;;;3.17;100.00
9521;BME280;4798;41.574;23.734;2024-01-06T00:46:29;95490.53;;;3.09;100.00
9521;BME280;4798;41.574;23.734;2024-01-06T00:48:57;95484.13;;;3.05;100.00
9521;BME280;4798;41.574;23.734;2024-01-06T00:51:27;95470.09;;;2.99;100.00
9521;BME280;4798;41.574;23.734;2024-01-06T00:53:56;95496.41;;;2.86;100.00
9521;BME280;4798;41.574;23.734;2024-01-06T00:56:25;95492.00;;;3.05;100.00
9521;BME280;4798;41.574;23.734;2024-01-06T00:58:55;95478.91;;;3.23;100.00
9521;BME280;4798;41.574;23.734;2024-01-06T01:01:24;95466.47;;;3.18;100.00
9521;BME280;4798;41.574;23.734;2024-01-06T01:03:53;95458.09;;;3.10;100.00
9521;BME280;4798;41.574;23.734;2024-01-06T01:06:22;95475.09;;;3.19;100.00
9521;BME280;4798;41.574;23.734;2024-01-06T01:08:50;95471.47;;;3.20;100.00
9521;BME280;4798;41.574;23.734;2024-01-06T01:11:19;95476.28;;;3.23;100.00
9521;BME280;4798;41.574;23.734;2024-01-06T01:13:48;95478.94;;;3.35;100.00
9521;BME280;4798;41.574;23.734;2024-01-06T01:16:18;95463.63;;;3.02;100.00
9521;BME280;4798;41.574;23.734;2024-01-06T01:18:47;95467.03;;;3.20;100.00
9521;BME280;4798;41.574;23.734;2024-01-06T01:21:15;95463.03;;;3.00;100.00
9521;BME280;4798;41.574;23.734;2024-01-06T01:23:44;95469.44;;;3.04;100.00
9521;BME280;4798;41.574;23.734;2024-01-06T01:26:13;95471.34;;;2.97;100.00
9521;BME280;4798;41.574;23.734;2024-01-06T01:28:41;95461.66;;;2.97;100.00
9521;BME280;4798;41.574;23.734;2024-01-06T01:31:10;95463.34;;;3.10;100.00
9521;BME280;4798;41.574;23.734;2024-01-06T01:33:40;95454.38;;;3.17;100.00
9521;BME280;4798;41.574;23.734;2024-01-06T01:36:09;95464.84;;;3.36;100.00
9521;BME280;4798;41.574;23.734;2024-01-06T01:38:38;95466.53;;;3.12;100.00
9521;BME280;4798;41.574;23.734;2024-01-06T01:41:06;95465.28;;;3.14;100.00
9521;BME280;4798;41.574;23.734;2024-01-06T01:43:35;95465.22;;;3.21;100.00
9521;BME280;4798;41.574;23.734;2024-01-06T01:46:05;95454.06;;;3.44;100.00
9521;BME280;4798;41.574;23.734;2024-01-06T01:48:34;95417.06;;;3.22;100.00
9521;BME280;4798;41.574;23.734;2024-01-06T01:51:05;95457.13;;;3.41;100.00
9521;BME280;4798;41.574;23.734;2024-01-06T01:53:36;95449.09;;;3.54;100.00
9521;BME280;4798;41.574;23.734;2024-01-06T01:56:06;95442.94;;;3.60;100.00
9521;BME280;4798;41.574;23.734;2024-01-06T01:58:35;95449.69;;;3.67;100.00
9521;BME280;4798;41.574;23.734;2024-01-06T02:01:04;95450.34;;;3.51;100.00
9521;BME280;4798;41.574;23.734;2024-01-06T02:03:33;95446.94;;;3.62;100.00
9521;BME280;4798;41.574;23.734;2024-01-06T02:06:04;95430.34;;;3.68;100.00
9521;BME280;4798;41.574;23.734;2024-01-06T02:08:33;95438.66;;;3.77;100.00
9521;BME280;4798;41.574;23.734;2024-01-06T02:11:03;95434.34;;;3.82;100.00
9521;BME280;4798;41.574;23.734;2024-01-06T02:13:35;95424.44;;;3.73;100.00
9521;BME280;4798;41.574;23.734;2024-01-06T02:16:05;95433.53;;;3.70;100.00
9521;BME280;4798;41.574;23.734;2024-01-06T02:18:33;95421.91;;;3.66;100.00
9521;BME280;4798;41.574;23.734;2024-01-06T02:21:02;95424.00;;;3.46;100.00
9521;BME280;4798;41.574;23.734;2024-01-06T02:23:35;95431.09;;;3.57;100.00
9521;BME280;4798;41.574;23.734;2024-01-06T02:26:04;95426.53;;;3.53;100.00
9521;BME280;4798;41.574;23.734;2024-01-06T02:28:33;95419.09;;;3.50;100.00
9521;BME280;4798;41.574;23.734;2024-01-06T02:31:01;95429.13;;;3.23;100.00
9521;BME280;4798;41.574;23.734;2024-01-06T02:33:30;95366.19;;;2.82;100.00
9521;BME280;4798;41.574;23.734;2024-01-06T02:35:59;95411.34;;;3.43;100.00
9521;BME280;4798;41.574;23.734;2024-01-06T02:38:27;95417.59;;;3.42;100.00
9521;BME280;4798;41.574;23.734;2024-01-06T02:40:57;95424.72;;;3.24;100.00
9521;BME280;4798;41.574;23.734;2024-01-06T02:43:26;95350.97;;;2.61;100.00
9521;BME280;4798;41.574;23.734;2024-01-06T02:45:54;95412.88;;;2.67;100.00
9521;BME280;4798;41.574;23.734;2024-01-06T02:48:23;95421.69;;;2.72;100.00
9521;BME280;4798;41.574;23.734;2024-01-06T02:50:52;95422.25;;;2.92;100.00
9521;BME280;4798;41.574;23.734;2024-01-06T02:53:20;95415.19;;;2.75;100.00
9521;BME280;4798;41.574;23.734;2024-01-06T02:55:49;95421.16;;;2.64;100.00
9521;BME280;4798;41.574;23.734;2024-01-06T02:58:19;95407.63;;;2.85;100.00
9521;BME280;4798;41.574;23.734;2024-01-06T03:00:48;95411.84;;;3.04;100.00
9521;BME280;4798;41.574;23.734;2024-01-06T03:03:17;95419.81;;;3.09;100.00
9521;BME280;4798;41.574;23.734;2024-01-06T03:05:46;95406.00;;;3.20;100.00
9521;BME280;4798;41.574;23.734;2024-01-06T03:08:16;95395.53;;;3.20;100.00
9521;BME280;4798;41.574;23.734;2024-01-06T03:10:45;95332.44;;;2.92;100.00
9521;BME280;4798;41.574;23.734;2024-01-06T03:13:13;95398.72;;;3.22;100.00
9521;BME280;4798;41.574;23.734;2024-01-06T03:15:43;95348.69;;;2.82;100.00
9521;BME280;4798;41.574;23.734;2024-01-06T03:18:12;95396.88;;;2.93;100.00
9521;BME280;4798;41.574;23.734;2024-01-06T03:20:41;95402.75;;;3.06;100.00
9521;BME280;4798;41.574;23.734;2024-01-06T03:23:10;95413.44;;;3.05;100.00
9521;BME280;4798;41.574;23.734;2024-01-06T03:25:39;95377.56;;;2.76;100.00
9521;BME280;4798;41.574;23.734;2024-01-06T03:28:07;95371.28;;;2.77;100.00
9521;BME280;4798;41.574;23.734;2024-01-06T03:30:36;95389.31;;;2.85;100.00
9521;BME280;4798;41.574;23.734;2024-01-06T03:33:06;95384.00;;;2.91;100.00
9521;BME280;4798;41.574;23.734;2024-01-06T03:35:35;95386.03;;;3.07;100.00
9521;BME280;4798;41.574;23.734;2024-01-06T03:38:03;95371.94;;;3.08;100.00
9521;BME280;4798;41.574;23.734;2024-01-06T03:40:32;95372.44;;;2.99;100.00
9521;BME280;4798;41.574;23.734;2024-01-06T03:43:00;95358.19;;;2.95;100.00
9521;BME280;4798;41.574;23.734;2024-01-06T03:45:29;95385.16;;;2.95;100.00
9521;BME280;4798;41.574;23.734;2024-01-06T03:47:58;95374.84;;;3.00;100.00
9521;BME280;4798;41.574;23.734;2024-01-06T03:50:28;95374.16;;;3.05;100.00
9521;BME280;4798;41.574;23.734;2024-01-06T03:52:57;95375.66;;;3.01;100.00
9521;BME280;4798;41.574;23.734;2024-01-06T03:55:25;95383.09;;;3.15;100.00
9521;BME280;4798;41.574;23.734;2024-01-06T03:57:54;95378.44;;;3.17;100.00
9521;BME280;4798;41.574;23.734;2024-01-06T04:00:25;95376.69;;;3.11;100.00
9521;BME280;4798;41.574;23.734;2024-01-06T04:02:54;95357.19;;;2.78;100.00
9521;BME280;4798;41.574;23.734;2024-01-06T04:05:22;95371.38;;;2.88;100.00
9521;BME280;4798;41.574;23.734;2024-01-06T04:07:52;95374.56;;;3.20;100.00
9521;BME280;4798;41.574;23.734;2024-01-06T04:10:21;95380.38;;;3.22;100.00
9521;BME280;4798;41.574;23.734;2024-01-06T04:12:49;95387.31;;;3.16;100.00
9521;BME280;4798;41.574;23.734;2024-01-06T04:15:19;95392.00;;;2.96;100.00
9521;BME280;4798;41.574;23.734;2024-01-06T04:17:48;95365.88;;;3.08;100.00
9521;BME280;4798;41.574;23.734;2024-01-06T04:20:17;95375.66;;;3.31;100.00
9521;BME280;4798;41.574;23.734;2024-01-06T04:22:46;95373.69;;;3.26;100.00
9521;BME280;4798;41.574;23.734;2024-01-06T04:25:16;95379.59;;;3.21;100.00
9521;BME280;4798;41.574;23.734;2024-01-06T04:27:44;95380.97;;;3.24;100.00
9521;BME280;4798;41.574;23.734;2024-01-06T04:30:14;95385.75;;;3.57;100.00
9521;BME280;4798;41.574;23.734;2024-01-06T04:32:43;95365.00;;;3.55;100.00
9521;BME280;4798;41.574;23.734;2024-01-06T04:35:12;95387.66;;;3.91;100.00
9521;BME280;4798;41.574;23.734;2024-01-06T04:37:40;95378.53;;;3.94;100.00
9521;BME280;4798;41.574;23.734;2024-01-06T04:40:10;94951.50;;;0.59;100.00
9521;BME280;4798;41.574;23.734;2024-01-06T04:42:40;95389.69;;;3.36;100.00
9521;BME280;4798;41.574;23.734;2024-01-06T04:45:09;95384.09;;;3.44;100.00
9521;BME280;4798;41.574;23.734;2024-01-06T04:47:38;95378.00;;;3.20;100.00
9521;BME280;4798;41.574;23.734;2024-01-06T04:50:07;95380.41;;;3.04;100.00
9521;BME280;4798;41.574;23.734;2024-01-06T04:52:36;95385.59;;;3.10;100.00
9521;BME280;4798;41.574;23.734;2024-01-06T04:55:05;95390.31;;;3.02;100.00
9521;BME280;4798;41.574;23.734;2024-01-06T04:57:33;95384.38;;;3.25;100.00
9521;BME280;4798;41.574;23.734;2024-01-06T05:00:05;95359.50;;;3.34;100.00
9521;BME280;4798;41.574;23.734;2024-01-06T05:02:34;95378.53;;;3.11;100.00
9521;BME280;4798;41.574;23.734;2024-01-06T05:05:03;95380.94;;;2.76;100.00
9521;BME280;4798;41.574;23.734;2024-01-06T05:07:31;95385.84;;;2.73;100.00
9521;BME280;4798;41.574;23.734;2024-01-06T05:10:00;95386.16;;;3.12;100.00
9521;BME280;4798;41.574;23.734;2024-01-06T05:12:32;95382.28;;;3.15;100.00
9521;BME280;4798;41.574;23.734;2024-01-06T05:15:01;95402.25;;;2.80;100.00
9521;BME280;4798;41.574;23.734;2024-01-06T05:17:31;95298.84;;;2.59;100.00
9521;BME280;4798;41.574;23.734;2024-01-06T05:20:00;95369.06;;;3.10;100.00
9521;BME280;4798;41.574;23.734;2024-01-06T05:22:28;95369.59;;;3.00;100.00
9521;BME280;4798;41.574;23.734;2024-01-06T05:24:57;95328.88;;;2.86;100.00
9521;BME280;4798;41.574;23.734;2024-01-06T05:27:26;95340.44;;;2.97;100.00
9521;BME280;4798;41.574;23.734;2024-01-06T05:29:54;95288.13;;;2.79;100.00
9521;BME280;4798;41.574;23.734;2024-01-06T05:32:23;95374.00;;;3.18;100.00
9521;BME280;4798;41.574;23.734;2024-01-06T05:34:53;95386.66;;;3.21;100.00
9521;BME280;4798;41.574;23.734;2024-01-06T05:37:22;95389.41;;;3.26;100.00
9521;BME280;4798;41.574;23.734;2024-01-06T05:39:50;95375.97;;;3.34;100.00
9521;BME280;4798;41.574;23.734;2024-01-06T05:42:19;95367.06;;;2.94;100.00
9521;BME280;4798;41.574;23.734;2024-01-06T05:44:48;95358.91;;;3.02;100.00
9521;BME280;4798;41.574;23.734;2024-01-06T05:47:17;95363.44;;;3.25;100.00
9521;BME280;4798;41.574;23.734;2024-01-06T05:49:46;95332.41;;;3.10;100.00
9521;BME280;4798;41.574;23.734;2024-01-06T05:52:17;95349.00;;;3.04;100.00
9521;BME280;4798;41.574;23.734;2024-01-06T05:54:45;95368.25;;;3.39;100.00
9521;BME280;4798;41.574;23.734;2024-01-06T05:57:14;95372.19;;;3.48;100.00
9521;BME280;4798;41.574;23.734;2024-01-06T05:59:43;95370.63;;;3.59;100.00
9521;BME280;4798;41.574;23.734;2024-01-06T06:02:11;95362.28;;;3.62;100.00
9521;BME280;4798;41.574;23.734;2024-01-06T06:04:40;95358.19;;;3.66;100.00
9521;BME280;4798;41.574;23.734;2024-01-06T06:07:09;95362.97;;;3.57;100.00
9521;BME280;4798;41.574;23.734;2024-01-06T06:09:39;95360.78;;;3.54;100.00
9521;BME280;4798;41.574;23.734;2024-01-06T06:12:08;95300.50;;;3.31;100.00
9521;BME280;4798;41.574;23.734;2024-01-06T06:14:37;95358.28;;;3.59;100.00
9521;BME280;4798;41.574;23.734;2024-01-06T06:17:05;95359.44;;;3.63;100.00
9521;BME280;4798;41.574;23.734;2024-01-06T06:19:34;95365.03;;;3.67;100.00
9521;BME280;4798;41.574;23.734;2024-01-06T06:22:03;95345.78;;;3.61;100.00
9521;BME280;4798;41.574;23.734;2024-01-06T06:24:32;95364.00;;;3.56;100.00
9521;BME280;4798;41.574;23.734;2024-01-06T06:27:02;95347.16;;;3.64;100.00
9521;BME280;4798;41.574;23.734;2024-01-06T06:29:30;95343.50;;;3.65;100.00
9521;BME280;4798;41.574;23.734;2024-01-06T06:31:59;95354.69;;;3.83;100.00
9521;BME280;4798;41.574;23.734;2024-01-06T06:34:27;95345.47;;;3.93;100.00
9521;BME280;4798;41.574;23.734;2024-01-06T06:36:56;95334.19;;;3.80;100.00
9521;BME280;4798;41.574;23.734;2024-01-06T06:39:25;95347.97;;;3.88;100.00
9521;BME280;4798;41.574;23.734;2024-01-06T06:41:55;95292.69;;;3.66;100.00
9521;BME280;4798;41.574;23.734;2024-01-06T06:44:25;95297.47;;;3.69;100.00
9521;BME280;4798;41.574;23.734;2024-01-06T06:46:54;95349.25;;;4.08;100.00
9521;BME280;4798;41.574;23.734;2024-01-06T06:49:23;95306.03;;;3.88;100.00
9521;BME280;4798;41.574;23.734;2024-01-06T06:51:51;95339.19;;;4.05;100.00
9521;BME280;4798;41.574;23.734;2024-01-06T06:54:20;95326.53;;;4.25;100.00
9521;BME280;4798;41.574;23.734;2024-01-06T06:56:48;95334.19;;;4.27;100.00
9521;BME280;4798;41.574;23.734;2024-01-06T06:59:17;95334.06;;;4.33;100.00
9521;BME280;4798;41.574;23.734;2024-01-06T07:01:47;95336.59;;;4.40;100.00
9521;BME280;4798;41.574;23.734;2024-01-06T07:04:16;95303.97;;;4.13;100.00
9521;BME280;4798;41.574;23.734;2024-01-06T07:06:44;95323.34;;;4.35;100.00
9521;BME280;4798;41.574;23.734;2024-01-06T07:09:13;95336.47;;;4.35;100.00
9521;BME280;4798;41.574;23.734;2024-01-06T07:11:42;95333.63;;;4.25;100.00
9521;BME280;4798;41.574;23.734;2024-01-06T07:14:10;95337.13;;;4.30;100.00
9521;BME280;4798;41.574;23.734;2024-01-06T07:16:39;95336.47;;;4.35;100.00
9521;BME280;4798;41.574;23.734;2024-01-06T07:19:09;95332.00;;;4.35;100.00
9521;BME280;4798;41.574;23.734;2024-01-06T07:21:38;95342.63;;;4.29;100.00
9521;BME280;4798;41.574;23.734;2024-01-06T07:24:07;95327.78;;;4.23;100.00
9521;BME280;4798;41.574;23.734;2024-01-06T07:26:35;95346.16;;;3.88;100.00
9521;BME280;4798;41.574;23.734;2024-01-06T07:29:04;95344.19;;;3.60;100.00
9521;BME280;4798;41.574;23.734;2024-01-06T07:31:34;95342.16;;;3.85;100.00
9521;BME280;4798;41.574;23.734;2024-01-06T07:34:02;95350.59;;;3.88;100.00
9521;BME280;4798;41.574;23.734;2024-01-06T07:36:33;95341.25;;;3.92;100.00
9521;BME280;4798;41.574;23.734;2024-01-06T07:39:01;95339.31;;;4.10;100.00
9521;BME280;4798;41.574;23.734;2024-01-06T07:41:31;95341.72;;;4.35;100.00
9521;BME280;4798;41.574;23.734;2024-01-06T07:44:00;95341.72;;;4.35;100.00
9521;BME280;4798;41.574;23.734;2024-01-06T07:46:29;95306.16;;;4.27;100.00
9521;BME280;4798;41.574;23.734;2024-01-06T07:48:59;95285.50;;;4.19;100.00
9521;BME280;4798;41.574;23.734;2024-01-06T07:51:28;95336.06;;;4.66;100.00
9521;BME280;4798;41.574;23.734;2024-01-06T07:54:00;95336.16;;;4.71;100.00
9521;BME280;4798;41.574;23.734;2024-01-06T07:56:29;95258.22;;;4.32;100.00
9521;BME280;4798;41.574;23.734;2024-01-06T07:58:58;95334.56;;;5.10;100.00
9521;BME280;4798;41.574;23.734;2024-01-06T08:01:26;95324.16;;;5.15;100.00
9521;BME280;4798;41.574;23.734;2024-01-06T08:03:55;95333.03;;;4.97;100.00
9521;BME280;4798;41.574;23.734;2024-01-06T08:06:24;95290.97;;;4.69;100.00
9521;BME280;4798;41.574;23.734;2024-01-06T08:08:54;95333.94;;;4.91;100.00
9521;BME280;4798;41.574;23.734;2024-01-06T08:11:24;95262.06;;;4.53;100.00
9521;BME280;4798;41.574;23.734;2024-01-06T08:13:53;95324.34;;;4.97;100.00
9521;BME280;4798;41.574;23.734;2024-01-06T08:16:21;95310.00;;;4.88;100.00
9521;BME280;4798;41.574;23.734;2024-01-06T08:18:50;95335.50;;;5.04;100.00
9521;BME280;4798;41.574;23.734;2024-01-06T08:21:19;95331.25;;;5.14;100.00
9521;BME280;4798;41.574;23.734;2024-01-06T08:23:48;95329.06;;;5.40;100.00
9521;BME280;4798;41.574;23.734;2024-01-06T08:26:16;95323.53;;;5.25;100.00
9521;BME280;4798;41.574;23.734;2024-01-06T08:28:47;95331.59;;;5.35;100.00
9521;BME280;4798;41.574;23.734;2024-01-06T08:31:15;95331.06;;;5.49;100.00
9521;BME280;4798;41.574;23.734;2024-01-06T08:33:44;95315.31;;;5.49;100.00
9521;BME280;4798;41.574;23.734;2024-01-06T08:36:14;95328.78;;;5.69;100.00
9521;BME280;4798;41.574;23.734;2024-01-06T08:38:42;95331.91;;;5.83;100.00
9521;BME280;4798;41.574;23.734;2024-01-06T08:41:11;95326.44;;;5.85;99.82
9521;BME280;4798;41.574;23.734;2024-01-06T08:43:40;95305.44;;;5.73;99.98
9521;BME280;4798;41.574;23.734;2024-01-06T08:46:10;95312.31;;;6.07;98.18
9521;BME280;4798;41.574;23.734;2024-01-06T08:48:38;95315.59;;;6.14;98.73
9521;BME280;4798;41.574;23.734;2024-01-06T08:51:07;95296.44;;;6.19;98.23
9521;BME280;4798;41.574;23.734;2024-01-06T08:53:36;95309.88;;;6.39;96.10
9521;BME280;4798;41.574;23.734;2024-01-06T08:56:05;95301.84;;;6.51;94.39
9521;BME280;4798;41.574;23.734;2024-01-06T08:58:34;95291.91;;;6.53;96.07
9521;BME280;4798;41.574;23.734;2024-01-06T09:01:03;95282.81;;;6.44;94.97
9521;BME280;4798;41.574;23.734;2024-01-06T09:03:33;95283.84;;;6.86;93.33
9521;BME280;4798;41.574;23.734;2024-01-06T09:06:02;95283.16;;;7.17;93.37
9521;BME280;4798;41.574;23.734;2024-01-06T09:08:32;95271.38;;;6.98;92.15
9521;BME280;4798;41.574;23.734;2024-01-06T09:11:00;95279.69;;;6.90;92.21
9521;BME280;4798;41.574;23.734;2024-01-06T09:13:29;95267.28;;;7.12;92.10
9521;BME280;4798;41.574;23.734;2024-01-06T09:15:59;95252.19;;;7.34;91.42
9521;BME280;4798;41.574;23.734;2024-01-06T09:18:29;95262.88;;;7.49;90.41
9521;BME280;4798;41.574;23.734;2024-01-06T09:21:00;95259.16;;;7.45;89.56
9521;BME280;4798;41.574;23.734;2024-01-06T09:23:30;95253.94;;;7.50;91.27
9521;BME280;4798;41.574;23.734;2024-01-06T09:25:59;95251.13;;;7.30;91.32
9521;BME280;4798;41.574;23.734;2024-01-06T09:28:27;95246.59;;;6.99;94.05
9521;BME280;4798;41.574;23.734;2024-01-06T09:30:56;95239.75;;;6.98;93.91
9521;BME280;4798;41.574;23.734;2024-01-06T09:33:25;95234.72;;;6.96;94.27
9521;BME280;4798;41.574;23.734;2024-01-06T09:35:56;95229.84;;;7.10;94.65
9521;BME280;4798;41.574;23.734;2024-01-06T09:38:26;95235.50;;;6.97;95.08
9521;BME280;4798;41.574;23.734;2024-01-06T09:40:56;95234.63;;;7.13;95.39
9521;BME280;4798;41.574;23.734;2024-01-06T09:43:26;95221.78;;;7.53;92.06
9521;BME280;4798;41.574;23.734;2024-01-06T09:46:05;95228.44;;;7.61;89.72
9521;BME280;4798;41.574;23.734;2024-01-06T09:48:38;95223.06;;;7.88;89.80
9521;BME280;4798;41.574;23.734;2024-01-06T09:51:10;95214.31;;;7.82;88.63
9521;BME280;4798;41.574;23.734;2024-01-06T09:53:50;95199.63;;;7.91;89.26
9521;BME280;4798;41.574;23.734;2024-01-06T09:56:20;95200.06;;;8.25;87.38
9521;BME280;4798;41.574;23.734;2024-01-06T09:58:50;95200.50;;;8.59;85.23
9521;BME280;4798;41.574;23.734;2024-01-06T10:01:19;95186.97;;;8.45;85.15
9521;BME280;4798;41.574;23.734;2024-01-06T10:03:48;95180.06;;;8.29;86.43
9521;BME280;4798;41.574;23.734;2024-01-06T10:06:17;95173.78;;;8.50;85.63
9521;BME280;4798;41.574;23.734;2024-01-06T10:08:50;95162.19;;;8.61;86.13
9521;BME280;4798;41.574;23.734;2024-01-06T10:11:19;95162.19;;;8.61;85.33
9521;BME280;4798;41.574;23.734;2024-01-06T10:13:50;95141.34;;;8.60;85.88
9521;BME280;4798;41.574;23.734;2024-01-06T10:16:19;95142.91;;;8.56;83.12
9521;BME280;4798;41.574;23.734;2024-01-06T10:18:48;95141.38;;;8.80;81.16
9521;BME280;4798;41.574;23.734;2024-01-06T10:21:20;95125.28;;;9.12;81.49
9521;BME280;4798;41.574;23.734;2024-01-06T10:23:53;95109.41;;;8.81;82.40
9521;BME280;4798;41.574;23.734;2024-01-06T10:26:22;95119.47;;;9.15;79.06
9521;BME280;4798;41.574;23.734;2024-01-06T10:28:51;95113.38;;;9.34;80.01
9521;BME280;4798;41.574;23.734;2024-01-06T10:31:19;95110.44;;;9.66;77.96
9521;BME280;4798;41.574;23.734;2024-01-06T10:33:48;95053.59;;;9.38;76.82
9521;BME280;4798;41.574;23.734;2024-01-06T10:36:17;95105.38;;;9.65;76.40
9521;BME280;4798;41.574;23.734;2024-01-06T10:38:46;95086.06;;;9.69;76.34
9521;BME280;4798;41.574;23.734;2024-01-06T10:41:16;95094.50;;;9.86;76.18
9521;BME280;4798;41.574;23.734;2024-01-06T10:43:46;95092.63;;;9.82;74.83
9521;BME280;4798;41.574;23.734;2024-01-06T10:46:18;95061.28;;;9.30;74.94
9521;BME280;4798;41.574;23.734;2024-01-06T10:48:47;95088.00;;;9.28;75.75
9521;BME280;4798;41.574;23.734;2024-01-06T10:51:17;95082.97;;;9.17;76.20
9521;BME280;4798;41.574;23.734;2024-01-06T10:53:48;95059.69;;;9.14;76.51
9521;BME280;4798;41.574;23.734;2024-01-06T10:56:21;95066.78;;;9.58;75.70
9521;BME280;4798;41.574;23.734;2024-01-06T10:58:53;95061.56;;;9.33;75.76
9521;BME280;4798;41.574;23.734;2024-01-06T11:01:22;95075.03;;;9.32;76.84
9521;BME280;4798;41.574;23.734;2024-01-06T11:03:56;94982.56;;;8.81;77.76
9521;BME280;4798;41.574;23.734;2024-01-06T11:06:25;95056.50;;;9.42;78.16
9521;BME280;4798;41.574;23.734;2024-01-06T11:09:01;95011.84;;;9.30;77.56
9521;BME280;4798;41.574;23.734;2024-01-06T11:11:32;95042.97;;;9.64;78.11
9521;BME280;4798;41.574;23.734;2024-01-06T11:14:21;95035.84;;;9.49;77.32
9521;BME280;4798;41.574;23.734;2024-01-06T11:16:50;95050.66;;;9.55;77.13
9521;BME280;4798;41.574;23.734;2024-01-06T11:19:50;95041.69;;;10.15;77.27
9521;BME280;4798;41.574;23.734;2024-01-06T11:22:27;95014.38;;;10.19;76.54
9521;BME280;4798;41.574;23.734;2024-01-06T11:25:04;95032.50;;;9.97;77.17
9521;BME280;4798;41.574;23.734;2024-01-06T11:27:36;95024.72;;;10.21;75.97
9521;BME280;4798;41.574;23.734;2024-01-06T11:30:07;95020.66;;;10.39;76.74
9521;BME280;4798;41.574;23.734;2024-01-06T11:32:36;95022.03;;;10.31;76.34
9521;BME280;4798;41.574;23.734;2024-01-06T11:35:09;95010.38;;;10.27;75.16
9521;BME280;4798;41.574;23.734;2024-01-06T11:37:52;95007.16;;;9.86;77.35
9521;BME280;4798;41.574;23.734;2024-01-06T11:40:24;94998.31;;;10.06;77.64
9521;BME280;4798;41.574;23.734;2024-01-06T11:43:00;94995.44;;;9.92;76.93
9521;BME280;4798;41.574;23.734;2024-01-06T11:45:29;94974.31;;;9.82;76.94
9521;BME280;4798;41.574;23.734;2024-01-06T11:48:00;94985.28;;;10.14;77.85
9521;BME280;4798;41.574;23.734;2024-01-06T11:50:31;94975.22;;;10.22;77.67
9521;BME280;4798;41.574;23.734;2024-01-06T11:53:02;94945.44;;;9.91;78.41
9521;BME280;4798;41.574;23.734;2024-01-06T11:55:49;94966.72;;;10.19;78.42
9521;BME280;4798;41.574;23.734;2024-01-06T11:58:20;94914.91;;;10.03;77.51
9521;BME280;4798;41.574;23.734;2024-01-06T12:00:55;94954.50;;;10.29;78.50
9521;BME280;4798;41.574;23.734;2024-01-06T12:03:26;94949.84;;;10.49;77.96
9521;BME280;4798;41.574;23.734;2024-01-06T12:05:59;94894.50;;;10.09;78.02
9521;BME280;4798;41.574;23.734;2024-01-06T12:08:29;94921.06;;;10.33;78.71
9521;BME280;4798;41.574;23.734;2024-01-06T12:11:04;94932.44;;;10.38;78.75
9521;BME280;4798;41.574;23.734;2024-01-06T12:13:36;94932.91;;;10.45;77.94
9521;BME280;4798;41.574;23.734;2024-01-06T12:16:05;94925.03;;;10.35;78.98
9521;BME280;4798;41.574;23.734;2024-01-06T12:18:34;94900.00;;;10.17;78.44
9521;BME280;4798;41.574;23.734;2024-01-06T12:21:03;94898.41;;;10.22;78.84
9521;BME280;4798;41.574;23.734;2024-01-06T12:23:31;94918.84;;;10.50;78.04
9521;BME280;4798;41.574;23.734;2024-01-06T12:26:00;94919.41;;;10.47;78.16
9521;BME280;4798;41.574;23.734;2024-01-06T12:28:29;94916.75;;;10.47;78.81
9521;BME280;4798;41.574;23.734;2024-01-06T12:30:59;94897.72;;;10.40;78.49
9521;BME280;4798;41.574;23.734;2024-01-06T12:33:28;94879.38;;;10.14;79.24
9521;BME280;4798;41.574;23.734;2024-01-06T12:35:57;94877.09;;;10.37;77.89
9521;BME280;4798;41.574;23.734;2024-01-06T12:38:36;94915.47;;;10.68;76.73
9521;BME280;4798;41.574;23.734;2024-01-06T12:41:05;94911.13;;;10.82;76.47
9521;BME280;4798;41.574;23.734;2024-01-06T12:43:33;94905.03;;;10.81;76.25
9521;BME280;4798;41.574;23.734;2024-01-06T12:46:07;94894.47;;;10.76;77.16
9521;BME280;4798;41.574;23.734;2024-01-06T12:48:35;94906.09;;;10.80;77.19
9521;BME280;4798;41.574;23.734;2024-01-06T12:51:04;94899.31;;;10.93;76.80
9521;BME280;4798;41.574;23.734;2024-01-06T12:53:33;94897.25;;;10.90;77.51
9521;BME280;4798;41.574;23.734;2024-01-06T12:56:03;94899.69;;;10.87;78.11
9521;BME280;4798;41.574;23.734;2024-01-06T12:58:32;94894.94;;;10.83;78.36
9521;BME280;4798;41.574;23.734;2024-01-06T13:01:00;94835.06;;;10.54;78.10
9521;BME280;4798;41.574;23.734;2024-01-06T13:03:34;94885.63;;;10.86;77.68
9521;BME280;4798;41.574;23.734;2024-01-06T13:06:06;94881.47;;;10.80;77.82
9521;BME280;4798;41.574;23.734;2024-01-06T13:08:36;94873.66;;;10.89;78.74
9521;BME280;4798;41.574;23.734;2024-01-06T13:11:05;94880.88;;;10.83;79.66
9521;BME280;4798;41.574;23.734;2024-01-06T13:13:35;94875.72;;;10.68;79.55
9521;BME280;4798;41.574;23.734;2024-01-06T13:16:03;94740.16;;;9.75;79.90
9521;BME280;4798;41.574;23.734;2024-01-06T13:18:34;94887.56;;;10.52;79.81
9521;BME280;4798;41.574;23.734;2024-01-06T13:21:04;94862.81;;;10.61;79.94
9521;BME280;4798;41.574;23.734;2024-01-06T13:23:33;94833.28;;;10.73;79.84
9521;BME280;4798;41.574;23.734;2024-01-06T13:26:02;94739.50;;;10.22;79.56